createdAt,value
2018-11-29T00:02:17.518Z,2.06
2018-11-29T00:04:49.250Z,2.00
2018-11-29T00:07:19.987Z,1.94
2018-11-29T00:09:52.157Z,1.93
2018-11-29T00:12:22.945Z,1.87
2018-11-29T00:14:54.062Z,1.75
2018-11-29T00:17:24.891Z,1.71
2018-11-29T00:19:55.779Z,1.69
2018-11-29T00:22:26.913Z,1.74
2018-11-29T00:24:57.779Z,1.84
2018-11-29T00:27:28.599Z,1.85
2018-11-29T00:29:59.370Z,1.73
2018-11-29T00:32:30.031Z,1.57
2018-11-29T00:35:00.966Z,1.42
2018-11-29T00:37:32.061Z,1.34
2018-11-29T00:40:02.867Z,1.27
2018-11-29T00:42:33.848Z,1.31
2018-11-29T00:45:05.065Z,1.30
2018-11-29T00:47:35.888Z,1.28
2018-11-29T00:50:10.304Z,1.31
2018-11-29T00:52:42.224Z,1.39
2018-11-29T00:55:15.623Z,1.44
2018-11-29T00:57:46.594Z,1.51
2018-11-29T01:00:19.531Z,1.52
2018-11-29T01:02:50.393Z,1.54
2018-11-29T01:05:21.042Z,1.65
2018-11-29T01:07:51.866Z,1.67
2018-11-29T01:10:22.617Z,1.77
2018-11-29T01:12:53.459Z,1.97
2018-11-29T01:15:24.417Z,2.11
2018-11-29T01:17:55.305Z,2.16
2018-11-29T01:20:26.064Z,2.30
2018-11-29T01:22:56.844Z,2.20
2018-11-29T01:25:27.670Z,2.20
2018-11-29T01:27:58.451Z,2.23
2018-11-29T01:30:29.340Z,2.28
2018-11-29T01:32:59.981Z,2.38
2018-11-29T01:35:30.647Z,2.28
2018-11-29T01:38:01.428Z,2.31
2018-11-29T01:40:32.334Z,2.27
2018-11-29T01:43:03.068Z,2.30
2018-11-29T01:45:33.800Z,2.39
2018-11-29T01:48:04.698Z,2.50
2018-11-29T01:50:35.330Z,2.39
2018-11-29T01:53:06.289Z,2.42
2018-11-29T01:55:37.115Z,2.53
2018-11-29T01:58:07.797Z,2.63
2018-11-29T02:00:38.647Z,2.60
2018-11-29T02:03:10.018Z,2.57
2018-11-29T02:05:41.237Z,2.43
2018-11-29T02:08:12.286Z,2.24
2018-11-29T02:10:48.430Z,2.06
2018-11-29T02:13:19.912Z,1.94
2018-11-29T02:15:50.946Z,1.80
2018-11-29T02:18:21.906Z,1.72
2018-11-29T02:20:59.560Z,1.78
2018-11-29T02:23:30.294Z,1.78
2018-11-29T02:26:01.779Z,1.73
2018-11-29T02:28:32.745Z,1.71
2018-11-29T02:31:03.840Z,1.68
2018-11-29T02:33:34.583Z,1.65
2018-11-29T02:36:05.557Z,1.69
2018-11-29T02:38:36.840Z,1.72
2018-11-29T02:41:08.588Z,1.74
2018-11-29T02:43:39.563Z,1.74
2018-11-29T02:46:10.633Z,1.73
2018-11-29T02:48:41.569Z,1.65
2018-11-29T02:51:12.519Z,1.50
2018-11-29T02:53:43.355Z,1.32
2018-11-29T02:56:14.245Z,1.15
2018-11-29T02:58:44.971Z,1.02
2018-11-29T03:01:15.828Z,0.97
2018-11-29T03:03:46.921Z,0.96
2018-11-29T03:06:17.742Z,0.94
2018-11-29T03:08:48.543Z,0.96
2018-11-29T03:11:19.384Z,0.95
2018-11-29T03:13:50.230Z,0.97
2018-11-29T03:16:21.358Z,0.92
2018-11-29T03:18:51.989Z,0.90
2018-11-29T03:21:22.601Z,0.93
2018-11-29T03:23:53.403Z,1.02
2018-11-29T03:26:24.160Z,1.02
2018-11-29T03:28:54.945Z,1.09
2018-11-29T03:31:25.940Z,1.23
2018-11-29T03:33:56.722Z,1.33
2018-11-29T03:36:27.612Z,1.32
2018-11-29T03:38:58.455Z,1.46
2018-11-29T03:41:29.521Z,1.52
2018-11-29T03:44:00.491Z,1.62
2018-11-29T03:46:31.389Z,1.67
2018-11-29T03:49:02.075Z,1.71
2018-11-29T03:51:32.771Z,1.76
2018-11-29T03:54:03.531Z,1.74
2018-11-29T03:56:34.136Z,1.52
2018-11-29T03:59:04.824Z,1.35
2018-11-29T04:01:35.510Z,1.34
2018-11-29T04:04:06.457Z,1.40
2018-11-29T04:06:37.347Z,1.47
2018-11-29T04:09:11.973Z,1.52
2018-11-29T04:11:42.822Z,1.60
2018-11-29T04:14:13.639Z,1.43
2018-11-29T04:16:44.386Z,1.10
2018-11-29T04:19:15.299Z,0.90
2018-11-29T04:21:46.079Z,0.69
2018-11-29T04:24:17.155Z,0.49
2018-11-29T04:26:47.995Z,0.31
2018-11-29T04:29:18.648Z,0.17
2018-11-29T04:31:49.526Z,0.12
2018-11-29T04:34:20.340Z,0.06
2018-11-29T04:36:51.177Z,0.21
2018-11-29T04:39:22.076Z,0.36
2018-11-29T04:41:52.897Z,0.51
2018-11-29T04:44:23.857Z,0.60
2018-11-29T04:46:55.459Z,0.78
2018-11-29T04:49:26.444Z,0.78
2018-11-29T04:51:58.471Z,0.88
2018-11-29T04:54:30.363Z,1.04
2018-11-29T04:57:01.799Z,1.24
2018-11-29T04:59:33.188Z,1.29
2018-11-29T05:02:04.237Z,1.20
2018-11-29T05:04:35.412Z,0.95
2018-11-29T05:07:06.448Z,0.87
2018-11-29T05:09:37.416Z,0.93
2018-11-29T05:12:08.182Z,0.86
2018-11-29T05:14:39.102Z,0.81
2018-11-29T05:17:09.827Z,1.17
2018-11-29T05:19:40.999Z,1.36
2018-11-29T05:22:12.224Z,1.28
2018-11-29T05:24:43.108Z,1.24
2018-11-29T05:27:14.204Z,1.16
2018-11-29T05:29:45.144Z,1.01
2018-11-29T05:32:16.072Z,0.87
2018-11-29T05:34:46.962Z,0.88
2018-11-29T05:37:18.440Z,0.81
2018-11-29T05:39:49.409Z,0.70
2018-11-29T05:42:20.202Z,0.58
2018-11-29T05:44:51.239Z,0.53
2018-11-29T05:47:22.132Z,0.49
2018-11-29T05:49:52.942Z,0.56
2018-11-29T05:52:23.647Z,0.54
2018-11-29T05:54:54.607Z,0.45
2018-11-29T05:57:25.468Z,0.41
2018-11-29T05:59:56.855Z,0.36
2018-11-29T06:02:27.764Z,0.34
2018-11-29T06:04:58.823Z,0.34
2018-11-29T06:07:29.536Z,0.37
2018-11-29T06:10:01.022Z,0.39
2018-11-29T06:12:31.899Z,0.34
2018-11-29T06:15:02.795Z,0.31
2018-11-29T06:17:33.765Z,0.33
2018-11-29T06:20:04.604Z,0.36
2018-11-29T06:22:35.285Z,0.39
2018-11-29T06:25:06.561Z,0.35
2018-11-29T06:27:37.616Z,0.43
2018-11-29T06:30:18.640Z,0.50
2018-11-29T06:32:50.141Z,0.61
2018-11-29T06:35:20.960Z,0.91
2018-11-29T06:37:51.943Z,1.08
2018-11-29T06:40:23.037Z,1.27
2018-11-29T06:42:53.752Z,1.44
2018-11-29T06:45:24.729Z,1.52
2018-11-29T06:47:55.605Z,1.61
2018-11-29T06:50:26.725Z,1.73
2018-11-29T06:52:57.786Z,1.83
2018-11-29T06:55:28.570Z,1.95
2018-11-29T06:57:59.788Z,2.05
2018-11-29T07:00:31.843Z,2.71
2018-11-29T07:03:02.973Z,3.81
2018-11-29T07:05:34.230Z,5.45
2018-11-29T07:08:05.210Z,6.80
2018-11-29T07:10:36.720Z,8.01
2018-11-29T07:13:09.178Z,9.11
2018-11-29T07:15:40.155Z,9.75
2018-11-29T07:18:11.200Z,10.56
2018-11-29T07:20:42.123Z,11.30
2018-11-29T07:23:13.054Z,11.70
2018-11-29T07:25:44.012Z,11.95
2018-11-29T07:28:14.810Z,12.27
2018-11-29T07:30:45.645Z,12.96
2018-11-29T07:33:16.797Z,13.54
2018-11-29T07:35:47.701Z,14.02
2018-11-29T07:38:18.723Z,14.18
2018-11-29T07:40:49.769Z,14.83
2018-11-29T07:43:20.606Z,15.20
2018-11-29T07:45:51.654Z,15.36
2018-11-29T07:48:22.753Z,15.56
2018-11-29T07:50:53.768Z,15.52
2018-11-29T07:53:24.770Z,14.96
2018-11-29T07:55:55.867Z,14.87
2018-11-29T07:58:26.933Z,14.68
2018-11-29T08:00:58.595Z,15.39
2018-11-29T08:03:29.444Z,16.08
2018-11-29T08:06:00.487Z,16.63
2018-11-29T08:08:31.617Z,16.95
2018-11-29T08:11:02.476Z,17.28
2018-11-29T08:13:33.294Z,17.40
2018-11-29T08:16:04.622Z,17.33
2018-11-29T08:18:35.744Z,17.40
2018-11-29T08:21:06.814Z,17.67
2018-11-29T08:23:37.711Z,17.39
2018-11-29T08:26:08.781Z,17.37
2018-11-29T08:28:39.879Z,17.84
2018-11-29T08:31:12.597Z,17.71
2018-11-29T08:33:43.381Z,17.72
2018-11-29T08:36:14.957Z,18.23
2018-11-29T08:38:46.520Z,18.38
2018-11-29T08:41:17.655Z,18.58
2018-11-29T08:43:48.838Z,17.89
2018-11-29T08:46:19.664Z,17.30
2018-11-29T08:48:51.232Z,17.23
2018-11-29T08:51:22.259Z,16.76
2018-11-29T08:53:54.145Z,17.40
2018-11-29T08:56:25.435Z,16.82
2018-11-29T08:58:56.802Z,17.76
2018-11-29T09:01:28.153Z,18.40
2018-11-29T09:03:59.535Z,18.56
2018-11-29T09:06:30.939Z,18.78
2018-11-29T09:09:02.240Z,18.90
2018-11-29T09:11:33.071Z,18.48
2018-11-29T09:14:04.330Z,18.21
2018-11-29T09:16:36.353Z,18.67
2018-11-29T09:19:07.257Z,18.94
2018-11-29T09:21:38.408Z,19.16
2018-11-29T09:24:10.135Z,18.58
2018-11-29T09:26:41.557Z,19.12
2018-11-29T09:29:13.828Z,19.28
2018-11-29T09:31:44.583Z,19.77
2018-11-29T09:34:15.412Z,20.11
2018-11-29T09:36:46.833Z,19.81
2018-11-29T09:39:17.825Z,20.42
2018-11-29T09:41:49.047Z,20.59
2018-11-29T09:44:19.778Z,20.94
2018-11-29T09:46:51.019Z,21.27
2018-11-29T09:49:22.573Z,21.57
2018-11-29T09:51:53.505Z,21.86
2018-11-29T09:54:25.617Z,22.32
2018-11-29T09:56:56.859Z,22.19
2018-11-29T09:59:27.680Z,22.25
2018-11-29T10:01:58.459Z,22.95
2018-11-29T10:04:29.884Z,23.91
2018-11-29T10:07:00.735Z,24.09
2018-11-29T10:09:32.115Z,23.77
2018-11-29T10:12:03.487Z,24.04
2018-11-29T10:14:34.552Z,23.48
2018-11-29T10:17:05.857Z,22.70
2018-11-29T10:19:36.619Z,21.21
2018-11-29T10:22:08.126Z,19.49
2018-11-29T10:24:39.214Z,20.05
2018-11-29T10:27:10.710Z,19.11
2018-11-29T10:29:41.741Z,18.18
2018-11-29T10:32:12.922Z,18.44
2018-11-29T10:34:44.216Z,19.30
2018-11-29T10:37:15.369Z,20.28
2018-11-29T10:39:47.460Z,20.88
2018-11-29T10:42:18.806Z,21.14
2018-11-29T10:44:50.836Z,21.35
2018-11-29T10:47:22.210Z,21.55
2018-11-29T10:49:53.242Z,21.09
2018-11-29T10:52:24.466Z,20.34
2018-11-29T10:54:56.656Z,20.79
2018-11-29T10:57:28.811Z,21.04
2018-11-29T11:00:00.279Z,21.29
2018-11-29T11:02:31.741Z,21.60
2018-11-29T11:05:02.749Z,21.80
2018-11-29T11:07:34.461Z,22.84
2018-11-29T11:10:05.896Z,22.49
2018-11-29T11:12:36.971Z,22.19
2018-11-29T11:15:08.557Z,22.96
2018-11-29T11:17:39.565Z,23.03
2018-11-29T11:20:10.564Z,22.81
2018-11-29T11:22:42.365Z,23.00
2018-11-29T11:25:14.607Z,23.15
2018-11-29T11:27:45.234Z,22.46
2018-11-29T11:30:18.567Z,22.60
2018-11-29T11:32:50.870Z,23.03
2018-11-29T11:35:22.318Z,23.35
2018-11-29T11:37:53.655Z,23.94
2018-11-29T11:40:25.299Z,24.37
2018-11-29T11:42:56.428Z,24.38
2018-11-29T11:45:27.356Z,23.55
2018-11-29T11:48:03.305Z,22.88
2018-11-29T11:50:29.522Z,22.85
2018-11-29T11:53:00.606Z,22.22
2018-11-29T11:55:31.657Z,20.02
2018-11-29T11:58:02.572Z,20.83
2018-11-29T12:03:17.360Z,21.25
2018-11-29T12:05:48.078Z,22.04
2018-11-29T12:08:18.869Z,22.48
2018-11-29T12:10:49.945Z,22.47
2018-11-29T12:13:24.129Z,22.82
2018-11-29T12:15:55.761Z,22.80
2018-11-29T12:18:27.048Z,22.86
2018-11-29T12:20:57.941Z,22.83
2018-11-29T12:23:29.922Z,22.37
2018-11-29T12:26:02.879Z,22.76
2018-11-29T12:28:35.424Z,22.63
2018-11-29T12:31:07.841Z,22.37
2018-11-29T12:33:40.919Z,22.60
2018-11-29T12:36:13.421Z,22.97
2018-11-29T12:38:47.729Z,23.11
2018-11-29T12:41:20.423Z,22.10
2018-11-29T12:43:53.643Z,22.07
2018-11-29T12:46:26.222Z,21.88
2018-11-29T12:49:00.768Z,21.69
2018-11-29T12:51:36.585Z,21.14
2018-11-29T12:54:09.750Z,21.22
2018-11-29T12:56:42.410Z,20.51
2018-11-29T12:59:15.542Z,20.42
2018-11-29T13:01:48.782Z,20.27
2018-11-29T13:04:21.684Z,20.08
2018-11-29T13:06:54.217Z,20.09
2018-11-29T13:09:27.406Z,20.05
2018-11-29T13:12:00.057Z,20.63
2018-11-29T13:14:33.309Z,20.42
2018-11-29T13:17:06.399Z,20.75
2018-11-29T13:19:38.842Z,21.00
2018-11-29T13:22:12.342Z,20.97
2018-11-29T13:24:44.937Z,20.80
2018-11-29T13:27:17.330Z,21.01
2018-11-29T13:29:50.037Z,21.52
2018-11-29T13:32:22.693Z,21.97
2018-11-29T13:34:56.660Z,21.84
2018-11-29T13:37:29.151Z,21.38
2018-11-29T13:40:02.622Z,20.89
2018-11-29T13:42:35.561Z,20.69
2018-11-29T13:45:10.564Z,20.01
2018-11-29T13:47:44.300Z,19.97
2018-11-29T14:02:55.610Z,19.46
2018-11-29T14:05:26.390Z,19.76
2018-11-29T14:07:57.637Z,20.01
2018-11-29T14:10:28.949Z,19.86
2018-11-29T14:13:00.410Z,19.75
2018-11-29T14:15:31.681Z,19.70
2018-11-29T14:18:02.642Z,19.49
2018-11-29T14:20:35.536Z,18.89
2018-11-29T14:23:05.431Z,18.94
2018-11-29T14:25:36.468Z,18.90
2018-11-29T14:28:08.631Z,18.49
2018-11-29T14:30:40.222Z,17.65
2018-11-29T14:33:10.983Z,17.17
2018-11-29T14:35:43.261Z,16.79
2018-11-29T14:38:14.720Z,16.57
2018-11-29T14:40:45.463Z,16.60
2018-11-29T14:43:17.740Z,16.84
2018-11-29T14:45:48.956Z,17.02
2018-11-29T14:48:20.099Z,17.22
2018-11-29T14:50:51.812Z,17.18
2018-11-29T14:53:23.200Z,17.05
2018-11-29T14:55:54.316Z,16.82
2018-11-29T14:58:26.129Z,16.63
2018-11-29T15:00:57.854Z,16.59
2018-11-29T15:03:28.926Z,16.22
2018-11-29T15:05:59.950Z,15.89
2018-11-29T15:08:30.945Z,15.55
2018-11-29T15:11:01.732Z,15.01
2018-11-29T15:13:32.529Z,13.98
2018-11-29T15:16:03.640Z,13.48
2018-11-29T15:18:34.782Z,12.97
2018-11-29T15:21:06.105Z,12.46
2018-11-29T15:23:37.443Z,11.99
2018-11-29T15:26:08.592Z,11.64
2018-11-29T15:28:39.974Z,11.31
2018-11-29T15:31:11.564Z,11.04
2018-11-29T15:33:42.707Z,10.80
2018-11-29T15:36:14.176Z,10.55
2018-11-29T15:38:45.302Z,10.29
2018-11-29T15:41:18.198Z,10.03
2018-11-29T15:43:47.680Z,9.77
2018-11-29T15:46:19.251Z,9.53
2018-11-29T15:48:50.291Z,9.26
2018-11-29T15:51:22.878Z,9.06
2018-11-29T15:53:54.358Z,8.81
2018-11-29T15:56:26.012Z,8.62
2018-11-29T15:58:57.167Z,8.39
2018-11-29T16:01:27.914Z,8.24
2018-11-29T16:03:58.896Z,8.10
2018-11-29T16:06:29.733Z,8.00
2018-11-29T16:09:15.467Z,7.94
2018-11-29T16:11:46.370Z,7.83
2018-11-29T16:14:18.573Z,7.75
2018-11-29T16:16:49.939Z,7.76
2018-11-29T16:19:21.558Z,7.68
2018-11-29T16:21:52.753Z,7.57
2018-11-29T16:24:23.717Z,7.48
2018-11-29T16:26:55.099Z,7.39
2018-11-29T16:29:26.230Z,7.27
2018-11-29T16:31:57.516Z,7.22
2018-11-29T16:34:29.704Z,7.16
2018-11-29T16:37:00.929Z,7.20
2018-11-29T16:39:32.034Z,7.12
2018-11-29T16:42:03.353Z,6.99
2018-11-29T16:44:34.266Z,6.83
2018-11-29T16:47:05.809Z,6.72
2018-11-29T16:49:37.832Z,6.58
2018-11-29T16:52:09.303Z,6.52
2018-11-29T16:54:41.459Z,6.58
2018-11-29T16:57:12.877Z,6.49
2018-11-29T16:59:44.150Z,6.42
2018-11-29T17:02:15.994Z,6.35
2018-11-29T17:04:47.386Z,6.44
2018-11-29T17:07:18.478Z,6.36
2018-11-29T17:09:50.626Z,6.32
2018-11-29T17:12:22.801Z,6.27
2018-11-29T17:14:55.402Z,6.11
2018-11-29T17:17:26.656Z,5.92
2018-11-29T17:19:57.835Z,5.91
2018-11-29T17:22:29.012Z,5.81
2018-11-29T17:25:00.270Z,5.73
2018-11-29T17:27:31.492Z,5.58
2018-11-29T17:30:03.532Z,5.49
2018-11-29T17:32:35.033Z,5.42
2018-11-29T17:35:06.540Z,5.41
2018-11-29T17:37:39.893Z,5.39
2018-11-29T17:40:14.839Z,5.35
2018-11-29T17:42:46.412Z,5.45
2018-11-29T17:45:21.046Z,5.48
2018-11-29T17:47:54.217Z,5.39
2018-11-29T17:50:32.373Z,5.40
2018-11-29T17:53:05.971Z,5.38
2018-11-29T17:55:38.621Z,5.34
2018-11-29T17:58:13.833Z,5.28
2018-11-29T18:00:48.373Z,5.17
2018-11-29T18:03:24.483Z,5.08
2018-11-29T18:05:57.033Z,5.02
2018-11-29T18:08:30.010Z,5.00
2018-11-29T18:11:02.483Z,4.99
2018-11-29T18:13:36.880Z,5.00
2018-11-29T18:16:10.508Z,5.05
2018-11-29T18:18:43.949Z,5.08
2018-11-29T18:21:17.065Z,5.05
2018-11-29T18:23:49.394Z,4.97
2018-11-29T18:26:22.426Z,4.91
2018-11-29T18:28:55.181Z,4.83
2018-11-29T18:31:27.776Z,4.77
2018-11-29T18:34:01.509Z,4.66
2018-11-29T18:36:34.271Z,4.52
2018-11-29T18:39:09.295Z,4.45
2018-11-29T18:41:42.200Z,4.33
2018-11-29T18:44:15.370Z,4.19
2018-11-29T18:46:48.123Z,4.11
2018-11-29T18:49:21.325Z,4.06
2018-11-29T18:51:55.057Z,4.03
2018-11-29T18:54:27.505Z,4.02
2018-11-29T18:57:00.497Z,4.03
2018-11-29T18:59:33.613Z,4.04
2018-11-29T19:02:07.490Z,4.07
2018-11-29T19:04:40.883Z,4.04
2018-11-29T19:07:13.413Z,3.96
2018-11-29T19:09:47.726Z,3.94
2018-11-29T19:12:21.181Z,3.98
2018-11-29T19:14:53.526Z,4.08
2018-11-29T19:17:26.971Z,4.15
2018-11-29T19:20:01.839Z,4.18
2018-11-29T19:22:34.801Z,4.16
2018-11-29T19:25:09.249Z,4.14
2018-11-29T19:27:42.323Z,4.08
2018-11-29T19:30:30.917Z,4.00
2018-11-29T19:33:17.149Z,3.97
2018-11-29T19:35:46.414Z,3.99
2018-11-29T19:38:21.460Z,3.94
2018-11-29T19:40:54.126Z,3.91
2018-11-29T19:43:27.498Z,3.80
2018-11-29T19:46:01.130Z,3.68
2018-11-29T19:48:33.899Z,3.50
2018-11-29T19:51:06.945Z,3.35
2018-11-29T19:53:39.773Z,3.18
2018-11-29T19:56:12.442Z,3.06
2018-11-29T19:58:45.285Z,2.98
2018-11-29T20:01:18.521Z,2.95
2018-11-29T20:03:51.535Z,3.12
2018-11-29T20:06:24.636Z,3.27
2018-11-29T20:08:58.441Z,3.22
2018-11-29T20:11:31.104Z,3.21
2018-11-29T20:14:05.469Z,3.29
2018-11-29T20:16:39.475Z,3.29
2018-11-29T20:19:13.180Z,3.23
2018-11-29T20:21:46.174Z,3.15
2018-11-29T20:24:18.961Z,3.06
2018-11-29T20:26:52.451Z,2.99
2018-11-29T20:29:25.352Z,2.92
2018-11-29T20:31:58.365Z,2.88
2018-11-29T20:34:31.399Z,2.87
2018-11-29T20:37:04.233Z,2.82
2018-11-29T20:39:37.367Z,2.65
2018-11-29T20:42:10.092Z,2.58
2018-11-29T20:44:44.110Z,2.61
2018-11-29T20:47:16.992Z,2.54
2018-11-29T20:49:49.674Z,2.42
2018-11-29T20:52:22.254Z,2.31
2018-11-29T20:54:55.749Z,2.27
2018-11-29T20:57:28.321Z,2.25
2018-11-29T21:00:02.273Z,2.23
2018-11-29T21:02:34.649Z,2.19
2018-11-29T21:05:09.304Z,2.17
2018-11-29T21:07:42.353Z,2.12
2018-11-29T21:10:25.695Z,2.07
2018-11-29T21:13:02.577Z,2.01
2018-11-29T21:15:40.719Z,1.97
2018-11-29T21:18:16.070Z,1.98
2018-11-29T21:20:48.436Z,1.98
2018-11-29T21:23:21.354Z,1.99
2018-11-29T21:25:53.905Z,2.03
2018-11-29T21:28:26.761Z,2.04
2018-11-29T21:30:59.357Z,1.96
2018-11-29T21:33:31.937Z,1.82
2018-11-29T21:36:05.179Z,1.71
2018-11-29T21:38:38.178Z,1.74
2018-11-29T21:41:11.194Z,1.76
2018-11-29T21:43:44.005Z,1.79
2018-11-29T21:46:17.133Z,1.85
2018-11-29T21:48:49.536Z,1.85
2018-11-29T21:51:22.370Z,2.05
2018-11-29T21:53:54.981Z,2.04
2018-11-29T21:56:27.258Z,1.94
2018-11-29T21:58:58.406Z,1.77
2018-11-29T22:01:30.068Z,1.89
2018-11-29T22:04:01.556Z,2.00
2018-11-29T22:06:32.673Z,1.93
2018-11-29T22:09:03.719Z,1.81
2018-11-29T22:11:35.632Z,1.65
2018-11-29T22:14:06.631Z,1.47
2018-11-29T22:16:38.274Z,1.31
2018-11-29T22:19:09.431Z,1.20
2018-11-29T22:21:40.611Z,1.14
2018-11-29T22:24:11.325Z,1.01
2018-11-29T22:26:42.239Z,0.88
2018-11-29T22:29:14.055Z,0.80
2018-11-29T22:31:46.519Z,0.78
2018-11-29T22:34:17.836Z,0.82
2018-11-29T22:36:49.022Z,0.90
2018-11-29T22:39:20.203Z,0.94
2018-11-29T22:41:51.283Z,0.94
2018-11-29T22:44:22.991Z,0.94
2018-11-29T22:46:53.785Z,0.97
2018-11-29T22:49:24.959Z,1.05
2018-11-29T22:51:56.018Z,1.04
2018-11-29T22:54:27.155Z,1.02
2018-11-29T22:56:58.333Z,1.02
2018-11-29T22:59:29.795Z,0.98
2018-11-29T23:02:00.748Z,0.93
2018-11-29T23:04:31.778Z,0.90
2018-11-29T23:07:02.734Z,0.85
2018-11-29T23:09:33.872Z,0.74
2018-11-29T23:12:04.952Z,0.63
2018-11-29T23:14:35.868Z,0.55
2018-11-29T23:17:06.898Z,0.44
2018-11-29T23:19:37.712Z,0.38
2018-11-29T23:22:09.037Z,0.37
2018-11-29T23:24:39.979Z,0.35
2018-11-29T23:27:10.925Z,0.37
2018-11-29T23:29:41.861Z,0.31
2018-11-29T23:32:13.193Z,0.24
2018-11-29T23:34:44.282Z,0.16
2018-11-29T23:37:15.202Z,0.11
2018-11-29T23:39:46.197Z,0.06
2018-11-29T23:42:17.245Z,0.02
2018-11-29T23:44:48.281Z,0.01
2018-11-29T23:47:19.199Z,0.00
2018-11-29T23:49:50.159Z,0.03
2018-11-29T23:52:21.239Z,0.00
2018-11-29T23:54:52.039Z,-0.03
2018-11-29T23:57:22.926Z,-0.03
2018-11-29T23:59:53.940Z,0.01
